Paonia, Colorado
Current Conditions -  °F | °C
As of 11:55 PM on Sunday 23 Nov 2014 (Local Time) from KAJZ Reporting Station
Clear Clear  
Wind Chill: 19°   Ceiling: Unl
Heat Index: 28°   Visibility: 10mi
Dew Point: 15°   Wind: 8mph
Humidity: 61%   Direction: 30°NNE
Pressure: 30.14"   Gusts: NA
Location:  38.87°N, 107.59°W
Report Text: KAJZ 240655Z AUTO 03007KT 10SM CLR M02/M09 A3014 RMK AO2 T10251092
Loading
Personal Weather Stations






























Interactive Weather Map New forecast layout! Learn more

10-Day Weather Forecast

Advertisements
Track Severe Weather on mobile